الصفحة الرئيسية
METAR-TAF:

METAR-TAF

مطار :

فلوريانوبوليس, سانتا كاتارينا, البرازيل

دائرة عرض: 27-40S, خط طول: 048-33W, ارتفاع: 5 متر

مراقبة الطقس الحالي

تاريخ ووقت الإصدار 46 دقيقة قبل الساعة 12:00UTC
ريح 2 عقدة من الغرب/الشمال الغربي
درجة الحرارة 25°درجة مئوية
الرطوبة 74%
ضغط 1017 hPa
الرؤية 10 كم أو أكثر
غيوم قليلة على ارتفاع 3000 قدم

METAR: SBFL 201200Z 30002KT 9999 FEW030 25/20 Q1017

زمن: 10:46 (12:46 UTC)

توقعات

تاريخ ووقت الإصدار 3ساعات و 46 دقيقة قبل الساعة 09:00UTC
التوقعات صالحة من20 الساعة 12 UTC إلى 21 الساعة 12 UTC
ريح 5 عقدة من الجنوب/الجنوب الشرقي
الرؤية 10 كم أو أكثر
غيوم متفرقة على ارتفاع 4000 قدم
أصبح
من 20 الساعة 16 UTC إلى 20 الساعة 18 UTC
ريح 7 عقدة من الشرق
غيوم مفككة على ارتفاع 2500 قدم
أصبح
من 21 الساعة 00 UTC إلى 21 الساعة 02 UTC
غيوم متفرقة على ارتفاع 3000 قدم
أصبح
من 21 الساعة 04 UTC إلى 21 الساعة 08 UTC
الرؤية: 0100 متر
غيوم متفرقة على ارتفاع 4000 قدم

TAF: SBFL 200900Z 2012/2112 15005KT 9999 SCT040 TX28/2017Z TN23/2108Z BECMG 2016/2018 08007KT BKN025 BECMG 2100/2102 SCT030 BECMG 2104/2108 0100 6KT SCT040 RMK PDV

أرصاد الطقس والتوقعات من أكثر من 4000 مطار (تقارير الطقس للمطار METAR والتنبؤ بالطقس بالمطارTAF).

المحطات المتاحة هي النقط الصفراء والحمراء على الخريطة.

حرك المؤشر فوق النقطة لمعرفة اسم المحطة.

ثم انقر لمعرفة أرصاد وتوقعات الطقس.

لتغيير الخارطة: اضغط على الأزرار الخضراء مع رمز الصليب الأسود للتكبير. على الزر الأخضر مع شرطة للتصغير، أو على الأسهم الخضراء للخرائط المجاورة.


METAR-TAF: